ΕΜΥ, Εθνική Μετεωρολογική Υπηρεσία - Δελτία Καιρού, Προγνώσεις

ΑΕΡΟΝΑΥΤΙΛΙΑ

GREEK AIRPORTS CODES

TAF LGNX 170700Z 1709/1718 34015KT 9999 FEW015 SCT020 TEMPO 1709/1718 34018G28KT PROB30 TEMPO 1709/1715 5000 RA SCT012 FEW018TCU BKN020=

EUROPEAN AIRPORTS CODES

LFPO 172130Z 25004KT 9999 BKN030 04/02 Q1028 NOSIG=